Tiempo atmosférico en la estación meteorológica de Tuineje, Las Palmas (1 m.)



Fecha
DESCASC
Temp. máxima en grados centígrados (hora)
DESCASC
Temp. mínima en grados centígrados (hora)
DESCASC
Temp. media en grados centígrados
DESCASC
Racha de viento máxima en m/sg (hora)
DESCASC
Velocidad máxima media en intervalos de 10 minutos(hora)
DESCASC
Precipitaciones diarias en mm
DESCASC
Precipitaciones de 00:00 a 06:00 en mm
DESCASC
Precipitaciones de 06:00 a 12:00 en mm
DESCASC
Precipitaciones de 12:00 a 18:00 en mm
DESCASC
Precipitaciones de 18:00 a 24:00 en mm
DESCASC

Gráficas

Temp. máximas Temp. mínimas Temp. medias Precipitaciones Rachas de viento máximas Velocidades máximas media en intervalos de 10 minutos

Datos horarios

Fecha y hora oficial Temperatura (ºC) Velocidad del viento (km/h) Dirección del viento Racha (km/h) Dirección de racha Precipitación (mm) Presión (hPa) Tendencia (hPa) Humedad (%)
2020-01-18 23:00:00 18.7 14 Norte 29 Norte 0 -- -- 42
2020-01-18 22:00:00 18.8 18 Norte 27 Norte 0 -- -- 43
2020-01-18 21:00:00 18.6 14 Norte 24 Norte 0 -- -- 42
2020-01-18 20:00:00 19.2 12 Norte 19 Norte 0 -- -- 30
2020-01-18 19:00:00 19.5 10 Norte 19 Nordeste 0 -- -- 33
2020-01-18 18:00:00 21 15 Nordeste 24 Nordeste 0 -- -- 28
2020-01-18 17:00:00 21.7 14 Nordeste 28 Este 0 -- -- 28
2020-01-18 16:00:00 21.1 15 Nordeste 38 Norte 0 -- -- 29
2020-01-18 15:00:00 20.6 14 Este 36 Nordeste 0 -- -- 32
2020-01-18 14:00:00 20.6 17 Este 39 Nordeste 0 -- -- 35
2020-01-18 13:00:00 20.2 19 Nordeste 34 Este 0 -- -- 34
2020-01-18 12:00:00 19.4 14 Nordeste 34 Este 0 -- -- 56
2020-01-18 11:00:00 19.6 14 Nordeste 41 Nordeste 0 -- -- 53
2020-01-18 10:00:00 19.9 17 Nordeste 36 Nordeste 0 -- -- 45
2020-01-18 09:00:00 17.1 12 Nordeste 17 Nordeste 0 -- -- 74
2020-01-18 08:00:00 15.6 11 Nordeste 17 Norte 0 -- -- 78
2020-01-18 07:00:00 16 12 Norte 16 Norte 0 -- -- 77
2020-01-18 06:00:00 15.7 10 Norte 18 Norte 0 -- -- 78
2020-01-18 05:00:00 15.7 11 Norte 17 Nordeste 0 -- -- 80
2020-01-18 04:00:00 15.9 10 Norte 19 Norte 0 -- -- 78
2020-01-18 03:00:00 16.3 12 Norte 18 Norte 0 -- -- 74
2020-01-18 02:00:00 16.3 9 Norte 22 Nordeste 0 -- -- 68
2020-01-18 01:00:00 16.2 12 Norte 28 Norte 0 -- -- 66
2020-01-18 00:00:00 16.6 11 Norte 43 Norte 0 -- -- 56
2020-01-17 23:00:00 17.1 17 Norte 31 Norte 0 -- -- 59
2020-01-17 22:00:00 16.6 15 Norte 27 Norte 0 -- -- 67
2020-01-17 21:00:00 17.1 17 Norte 28 Norte 0 -- -- 61
2020-01-17 20:00:00 17.2 17 Norte 27 Noroeste 0 -- -- 65
2020-01-17 19:00:00 17.9 14 Norte 26 Norte 0 -- -- 62
2020-01-17 18:00:00 19.7 11 Nordeste 15 Nordeste 0 -- -- 43
2020-01-17 17:00:00 20.4 8 Nordeste 27 Sudeste 0 -- -- 44
2020-01-17 16:00:00 19.4 15 Este 38 Nordeste 0 -- -- 54
2020-01-17 15:00:00 19 19 Nordeste 42 Nordeste 0 -- -- 55
2020-01-17 14:00:00 18.9 23 Nordeste 42 Nordeste 0 -- -- 57
2020-01-17 13:00:00 19.1 19 Nordeste 46 Nordeste 0 -- -- 56
2020-01-17 12:00:00 18.9 20 Nordeste 44 Nordeste 0 -- -- 56
2020-01-17 11:00:00 18.7 22 Nordeste 41 Nordeste 0 -- -- 59
2020-01-17 10:00:00 18.5 15 Nordeste 26 Nordeste 0 -- -- 62
2020-01-17 09:00:00 16.8 10 Norte 15 Nordeste 0 -- -- 65
2020-01-17 08:00:00 14.2 10 Norte 18 Nordeste 0 -- -- 75
2020-01-17 07:00:00 12.8 9 Nordeste 17 Nordeste 0 -- -- 75
2020-01-17 06:00:00 12.2 9 Nordeste 17 Nordeste 0 -- -- 74
2020-01-17 05:00:00 11.8 11 Nordeste 17 Nordeste 0 -- -- 72
2020-01-17 04:00:00 11.7 12 Nordeste 17 Nordeste 0 -- -- 70
2020-01-17 03:00:00 12.1 12 Nordeste 16 Nordeste 0 -- -- 67
2020-01-17 02:00:00 12.5 11 Nordeste 15 Nordeste 0 -- -- 66
2020-01-17 01:00:00 13 10 Nordeste 14 Nordeste 0 -- -- 62
2020-01-17 00:00:00 13.8 11 Nordeste 17 Nordeste 0 -- -- 61
2020-01-16 23:00:00 13.9 13 Nordeste 16 Nordeste 0 -- -- 60
2020-01-16 22:00:00 14.8 9 Nordeste 15 Nordeste 0 -- -- 60
2020-01-16 21:00:00 16 10 Nordeste 18 Norte 0 -- -- 54
2020-01-16 20:00:00 17.1 8 Nordeste 14 Norte 0 -- -- 44
2020-01-16 19:00:00 18.4 6 Norte 18 Este 0 -- -- 28
2020-01-16 18:00:00 18.6 11 Este 25 Este 0 -- -- 48
2020-01-16 17:00:00 18.6 13 Este 25 Este 0 -- -- 49
2020-01-16 16:00:00 18.1 18 Este 27 Este 0 -- -- 54
2020-01-16 15:00:00 18.8 14 Este 24 Este 0 -- -- 54
2020-01-16 14:00:00 20.2 6 Sudeste 16 Este 0 -- -- 51
2020-01-16 13:00:00 19.4 7 Este 13 Nordeste 0 -- -- 51
2020-01-16 12:00:00 20.1 5 Sudeste 13 Sudeste 0 -- -- 50
2020-01-16 11:00:00 19.7 5 Sudeste 13 Este 0 -- -- 50
2020-01-16 10:00:00 16 7 Nordeste 13 Nordeste 0 -- -- 59
2020-01-16 09:00:00 11.4 9 Nordeste 14 Norte 0 -- -- 71
2020-01-16 08:00:00 9.9 9 Nordeste 15 Norte 0 -- -- 76
2020-01-16 07:00:00 11.1 8 Nordeste 15 Norte 0 -- -- 74
2020-01-16 06:00:00 9.8 12 Nordeste 16 Nordeste 0 -- -- 76
2020-01-16 05:00:00 11.2 10 Nordeste 15 Nordeste 0 -- -- 73
2020-01-16 04:00:00 12.8 8 Nordeste 15 Nordeste 0 -- -- 70
2020-01-16 03:00:00 12.4 10 Nordeste 16 Nordeste 0 -- -- 70
2020-01-16 02:00:00 13.3 11 Norte 16 Nordeste 0 -- -- 68
2020-01-16 01:00:00 13.3 9 Nordeste 14 Nordeste 0 -- -- 66
2020-01-16 00:00:00 13.6 8 Nordeste 14 Nordeste 0 -- -- 62
2020-01-15 23:00:00 14 9 Nordeste 14 Nordeste 0 -- -- 60
2020-01-15 22:00:00 15.3 10 Nordeste 16 Nordeste 0 -- -- 56
2020-01-15 21:00:00 17.8 8 Norte 23 Nordeste 0 -- -- 39
2020-01-15 20:00:00 18.4 9 Nordeste 13 Este 0 -- -- 36
2020-01-15 19:00:00 18.6 2 Norte 13 Nordeste 0 -- -- 30
2020-01-15 18:00:00 19.6 8 Nordeste 14 Norte 0 -- -- 32
2020-01-15 17:00:00 19.6 5 Este 11 Este 0 -- -- 47
2020-01-15 16:00:00 19 8 Este 15 Este 0 -- -- 50
2020-01-15 15:00:00 19.4 6 Este 17 Este 0 -- -- 51
2020-01-15 14:00:00 18.8 10 Este 17 Este 0 -- -- 49
2020-01-15 13:00:00 18.9 8 Este 21 Este 0 -- -- 48
2020-01-15 12:00:00 18.9 8 Este 23 Este 0 -- -- 50
2020-01-15 11:00:00 19.1 8 Sudeste 18 Este 0 -- -- 54
2020-01-15 10:00:00 14.2 10 Nordeste 15 Nordeste 0 -- -- 65
2020-01-15 09:00:00 10.4 12 Norte 15 Nordeste 0 -- -- 76
2020-01-15 08:00:00 10.5 9 Nordeste 17 Norte 0 -- -- 77
2020-01-15 07:00:00 11.1 11 Nordeste 15 Norte 0 -- -- 76
2020-01-15 06:00:00 11.3 13 Nordeste 17 Norte 0 -- -- 75
2020-01-15 05:00:00 11.5 12 Nordeste 15 Nordeste 0 -- -- 71
2020-01-15 04:00:00 11.3 8 Nordeste 14 Este 0 -- -- 67
2020-01-15 03:00:00 11.8 10 Nordeste 15 Nordeste 0 -- -- 63
2020-01-15 02:00:00 12.2 12 Nordeste 17 Nordeste 0 -- -- 59
2020-01-15 01:00:00 12.1 11 Nordeste 15 Nordeste 0 -- -- 56
2020-01-15 00:00:00 11.9 8 Nordeste 15 Nordeste 0 -- -- 49
2020-01-14 23:00:00 12.9 9 Norte 14 Norte 0 -- -- 47
2020-01-14 22:00:00 13.9 9 Nordeste 15 Nordeste 0 -- -- 46
2020-01-14 21:00:00 14.4 10 Nordeste 14 Nordeste 0 -- -- 47
2020-01-14 20:00:00 17.2 5 Norte 8 Norte 0 -- -- 50
2020-01-14 19:00:00 17.4 0 Calma 6 Sudoeste 0 -- -- 49
2020-01-14 18:00:00 18.7 5 Sudoeste 10 Sur 0 -- -- 47
2020-01-14 17:00:00 19.5 9 Sudoeste 19 Sur 0 -- -- 50
2020-01-14 16:00:00 19.6 18 Sur 35 Sur 0 -- -- 50
2020-01-14 15:00:00 19.7 21 Sur 28 Sur 0 -- -- 53
2020-01-14 14:00:00 18.7 19 Sur 28 Sur 0 -- -- 55
2020-01-14 13:00:00 18.9 18 Sur 27 Sudeste 0 -- -- 55
2020-01-14 12:00:00 18 21 Sudeste 28 Sudeste 0 -- -- 54
2020-01-14 11:00:00 18.5 14 Sudeste 23 Sudeste 0 -- -- 50
2020-01-14 10:00:00 17.9 14 Sudeste 27 Sudeste 0 -- -- 56
2020-01-14 09:00:00 18.1 15 Sudeste 25 Este 0 -- -- 60
2020-01-14 08:00:00 17.7 12 Sudeste 28 Sur 0 -- -- 59
2020-01-14 07:00:00 17.7 11 Sudeste 25 Sudeste 0 -- -- 58
2020-01-14 06:00:00 15.5 7 Nordeste 23 Sudeste 0 -- -- 68
2020-01-14 05:00:00 12.8 5 Nordeste 17 Sudeste 0 -- -- 73
2020-01-14 04:00:00 15.3 2 Noroeste 15 Este 0 -- -- 65
2020-01-14 03:00:00 15.8 5 Nordeste 26 Nordeste 0 -- -- 66
2020-01-14 02:00:00 16.9 6 Nordeste 15 Nordeste 0 -- -- 60
2020-01-14 01:00:00 15.4 9 Nordeste 17 Norte 0 -- -- 66
2020-01-14 00:00:00 15.8 7 Nordeste 13 Nordeste 0 -- -- 67
2020-01-13 23:00:00 15.8 8 Nordeste 15 Nordeste 0 -- -- 68
2020-01-13 22:00:00 17.6 10 Norte 21 Norte 0 -- -- 59
2020-01-13 21:00:00 17.4 8 Norte 13 Norte 0 -- -- 64
2020-01-13 20:00:00 17.9 8 Nordeste 17 Norte 0 -- -- 48
2020-01-13 19:00:00 19.6 6 Nordeste 19 Nordeste 0 -- -- 38
2020-01-13 18:00:00 19.7 2 Este 5 Nordeste 0 -- -- 41
2020-01-13 17:00:00 19.8 2 Nordeste 6 Sudoeste 0 -- -- 40
2020-01-13 16:00:00 21 3 Sur 13 Sudoeste 0 -- -- 42
2020-01-13 15:00:00 21.3 5 Sur 14 Sur 0 -- -- 43
2020-01-13 14:00:00 19.5 10 Sur 24 Sudeste 0 -- -- 49
2020-01-13 13:00:00 18.1 17 Sudeste 34 Sudeste 0 -- -- 55
2020-01-13 12:00:00 18.1 21 Sudeste 34 Sur 0 -- -- 57
2020-01-13 11:00:00 18.1 21 Sudeste 36 Sudeste 0 -- -- 54
2020-01-13 10:00:00 18.3 18 Sudeste 35 Sudeste 0 -- -- 57
2020-01-13 09:00:00 18.2 18 Sudeste 37 Este 0 -- -- 56
2020-01-13 08:00:00 17.6 18 Sudeste 42 Sudeste 0 -- -- 58
2020-01-13 07:00:00 17.7 22 Este 44 Este 0 -- -- 54
2020-01-13 06:00:00 17.9 21 Este 46 Este 0 -- -- 57
2020-01-13 05:00:00 17.8 14 Este 42 Norte 0 -- -- 64
2020-01-13 04:00:00 17.6 22 Nordeste 48 Nordeste 0 -- -- 70
2020-01-13 03:00:00 17.8 30 Nordeste 42 Nordeste 0 -- -- 68
2020-01-13 02:00:00 17.5 20 Nordeste 35 Nordeste 0 -- -- 70
2020-01-13 01:00:00 17.6 21 Nordeste 32 Nordeste 0 -- -- 68
2020-01-13 00:00:00 17.8 22 Nordeste 42 Nordeste 0 -- -- 65
2020-01-12 23:00:00 17.8 25 Nordeste 39 Nordeste 0 -- -- 61
2020-01-12 22:00:00 17.6 19 Norte 31 Norte 0 -- -- 57
2020-01-12 21:00:00 17.1 21 Norte 29 Norte 0 -- -- 59
2020-01-12 20:00:00 17.6 19 Norte 30 Norte 0 -- -- 58
2020-01-12 19:00:00 17.9 13 Norte 24 Nordeste 0 -- -- 51
2020-01-12 18:00:00 18.5 19 Nordeste 28 Nordeste 0 -- -- 47
2020-01-12 17:00:00 19.2 19 Nordeste 35 Nordeste 0 -- -- 43
2020-01-12 16:00:00 18.8 20 Nordeste 47 Este 0 -- -- 47
2020-01-12 15:00:00 18.6 21 Nordeste 50 Norte 0 -- -- 49
2020-01-12 14:00:00 18.8 18 Nordeste 42 Norte 0 -- -- 55
2020-01-12 13:00:00 18.9 18 Nordeste 41 Nordeste 0 -- -- 51
2020-01-12 12:00:00 19.6 20 Nordeste 31 Nordeste 0 -- -- 47
2020-01-12 11:00:00 18.8 20 Nordeste 31 Nordeste 0 -- -- 59
2020-01-12 10:00:00 18.5 21 Nordeste 29 Nordeste 0 -- -- 61
2020-01-12 09:00:00 17.9 14 Nordeste 25 Nordeste 0 -- -- 62
2020-01-12 08:00:00 16.7 12 Nordeste 27 Nordeste 0 -- -- 65
2020-01-12 07:00:00 17.2 17 Nordeste 26 Nordeste 0 -- -- 62
2020-01-12 06:00:00 17.6 16 Nordeste 26 Nordeste 0 -- -- 57
2020-01-12 05:00:00 17.3 11 Nordeste 15 Nordeste 0 -- -- 64
2020-01-12 04:00:00 17.3 10 Norte 22 Norte 0 -- -- 63
2020-01-12 03:00:00 17.3 9 Nordeste 19 Norte 0 -- -- 62
2020-01-12 02:00:00 17.4 12 Nordeste 24 Nordeste 0 -- -- 62
2020-01-12 01:00:00 17.4 9 Nordeste 22 Nordeste 0 -- -- 61
2020-01-12 00:00:00 17.6 11 Nordeste 26 Nordeste 0 -- -- 59
2020-01-11 23:00:00 17.7 12 Norte 25 Nordeste 0 -- -- 59
2020-01-11 22:00:00 17.8 19 Nordeste 32 Nordeste 0 -- -- 61
2020-01-11 21:00:00 18.1 11 Norte 23 Norte 0 -- -- 58
2020-01-11 20:00:00 18.1 12 Nordeste 28 Norte 0 -- -- 59
2020-01-11 19:00:00 18 17 Norte 29 Norte 0 -- -- 63
2020-01-11 18:00:00 18.6 14 Norte 29 Norte 0 -- -- 60
2020-01-11 17:00:00 19.1 15 Norte 32 Norte 0 -- -- 58
2020-01-11 16:00:00 19.5 16 Norte 26 Norte 0 -- -- 57
2020-01-11 15:00:00 20.1 18 Norte 30 Noroeste 0 -- -- 50
2020-01-11 14:00:00 19.5 17 Nordeste 28 Nordeste 0 -- -- 58
2020-01-11 13:00:00 19.5 15 Nordeste 32 Norte 0 -- -- 57
2020-01-11 12:00:00 19.7 21 Nordeste 43 Nordeste 0 -- -- 55
2020-01-11 11:00:00 19 22 Nordeste 36 Nordeste 0 -- -- 60
2020-01-11 10:00:00 18.5 15 Norte 31 Nordeste 0 -- -- 60
2020-01-11 09:00:00 16.5 8 Nordeste 17 Norte 0 -- -- 70
2020-01-11 08:00:00 14.6 10 Nordeste 15 Nordeste 0 -- -- 69
2020-01-11 07:00:00 15.6 10 Nordeste 16 Norte 0 -- -- 67
2020-01-11 06:00:00 16.1 9 Nordeste 17 Norte 0 -- -- 66
2020-01-11 05:00:00 16.1 4 Norte 13 Norte 0 -- -- 66
2020-01-11 04:00:00 16.3 8 Norte 17 Norte 0 -- -- 68
2020-01-11 03:00:00 15.7 11 Nordeste 17 Norte 0 -- -- 75
2020-01-11 02:00:00 16.7 7 Norte 18 Norte 0 -- -- 74
2020-01-11 01:00:00 17.4 10 Norte 17 Nordeste 0 -- -- 72
2020-01-11 00:00:00 17.3 9 Nordeste 14 Nordeste 0 -- -- 74
2020-01-10 23:00:00 16.8 8 Nordeste 14 Nordeste 0 -- -- 76
2020-01-10 22:00:00 16.9 7 Nordeste 17 Norte 0 -- -- 72
2020-01-10 21:00:00 17.4 9 Norte 17 Norte 0 -- -- 73
2020-01-10 20:00:00 18 7 Nordeste 21 Nordeste 0 -- -- 74
2020-01-10 19:00:00 18.9 16 Nordeste 28 Nordeste 0 -- -- 70
2020-01-10 18:00:00 19.4 19 Nordeste 36 Nordeste 0 -- -- 62
2020-01-10 17:00:00 19.2 27 Nordeste 38 Nordeste 0 -- -- 66
2020-01-10 16:00:00 19.8 22 Nordeste 39 Nordeste 0 -- -- 61
2020-01-10 15:00:00 19.9 23 Nordeste 39 Nordeste 0 -- -- 64
2020-01-10 14:00:00 19.2 20 Nordeste 43 Nordeste 0 -- -- 70
2020-01-10 13:00:00 19.1 28 Nordeste 42 Nordeste 0 -- -- 67
2020-01-10 12:00:00 18.8 24 Nordeste 41 Norte 0 -- -- 75
2020-01-10 11:00:00 18 23 Nordeste 35 Nordeste 0 -- -- 79
2020-01-10 10:00:00 18.4 21 Nordeste 30 Norte 0 -- -- 77
2020-01-10 09:00:00 18.2 16 Nordeste 35 Nordeste 0 -- -- 77
2020-01-10 08:00:00 17.9 18 Nordeste 34 Nordeste 0 -- -- 76
2020-01-10 07:00:00 18 19 Nordeste 35 Nordeste 0 -- -- 77
2020-01-10 06:00:00 17.6 18 Nordeste 33 Nordeste 0 -- -- 78
2020-01-10 05:00:00 18.3 13 Nordeste 28 Norte 0 -- -- 69
2020-01-10 04:00:00 18.1 15 Norte 27 Nordeste 0 -- -- 72
2020-01-10 03:00:00 17.7 12 Nordeste 33 Norte 0 -- -- 70
2020-01-10 02:00:00 17.9 21 Nordeste 33 Nordeste 0 -- -- 68
2020-01-10 01:00:00 17.5 15 Nordeste 23 Nordeste 0 -- -- 69
2020-01-10 00:00:00 17 8 Nordeste 20 Norte 0 -- -- 66
2020-01-09 23:00:00 17.1 10 Nordeste 33 Norte 0 -- -- 64
2020-01-09 22:00:00 17.2 14 Norte 25 Norte 0 -- -- 64
2020-01-09 21:00:00 17.2 13 Nordeste 23 Nordeste 0 -- -- 63
2020-01-09 20:00:00 17.8 14 Norte 28 Norte 0 -- -- 61
2020-01-09 19:00:00 18.2 17 Nordeste 31 Nordeste 0 -- -- 65
2020-01-09 18:00:00 18.8 19 Nordeste 33 Nordeste 0 -- -- 61
2020-01-09 17:00:00 19.6 19 Nordeste 35 Nordeste 0 -- -- 59
2020-01-09 16:00:00 20.5 20 Nordeste 36 Nordeste 0 -- -- 54
2020-01-09 15:00:00 20.6 13 Nordeste 35 Nordeste 0 -- -- 56
2020-01-09 14:00:00 20.6 14 Nordeste 24 Nordeste 0 -- -- 52
2020-01-09 13:00:00 20.4 16 Norte 30 Nordeste 0 -- -- 51
2020-01-09 12:00:00 20.4 17 Nordeste 38 Nordeste 0 -- -- 49
2020-01-09 11:00:00 19.3 19 Nordeste 33 Nordeste 0 -- -- 53
2020-01-09 10:00:00 18.8 12 Norte 20 Norte 0 -- -- 55
2020-01-09 09:00:00 16.5 7 Nordeste 14 Nordeste 0 -- -- 68
2020-01-09 08:00:00 14.2 8 Nordeste 12 Nordeste 0 -- -- 75
2020-01-09 07:00:00 14.4 5 Este 13 Norte 0 -- -- 77
2020-01-09 06:00:00 13.5 6 Nordeste 12 Nordeste 0 -- -- 79
2020-01-09 05:00:00 13.6 8 Nordeste 14 Nordeste 0 -- -- 78
2020-01-09 04:00:00 14.6 8 Nordeste 14 Nordeste 0 -- -- 77
2020-01-09 03:00:00 14.4 3 Nordeste 8 Norte 0 -- -- 77
2020-01-09 02:00:00 14.3 7 Nordeste 12 Norte 0 -- -- 76
2020-01-09 01:00:00 15.3 9 Nordeste 13 Nordeste 0 -- -- 75
2020-01-09 00:00:00 15.1 8 Nordeste 12 Nordeste 0 -- -- 74
2020-01-08 23:00:00 15.9 5 Nordeste 13 Norte 0 -- -- 70
2020-01-08 22:00:00 16.4 6 Nordeste 19 Norte 0 -- -- 69
2020-01-08 21:00:00 17.3 9 Norte 20 Nordeste 0 -- -- 68
2020-01-08 20:00:00 17.5 14 Nordeste 26 Nordeste 0 -- -- 67
2020-01-08 19:00:00 17.9 15 Nordeste 24 Nordeste 0 -- -- 67
2020-01-08 18:00:00 18.3 18 Nordeste 31 Nordeste 0 -- -- 65
2020-01-08 17:00:00 18.9 22 Nordeste 36 Nordeste 0 -- -- 62
2020-01-08 16:00:00 19.1 24 Nordeste 37 Nordeste 0 -- -- 63
2020-01-08 15:00:00 19.1 23 Este 36 Este 0 -- -- 63
2020-01-08 14:00:00 20.1 17 Nordeste 29 Norte 0 -- -- 56
2020-01-08 13:00:00 20.2 17 Nordeste 30 Nordeste 0 -- -- 54
2020-01-08 12:00:00 19.6 16 Nordeste 27 Nordeste 0 -- -- 59
2020-01-08 11:00:00 19.1 17 Nordeste 30 Nordeste 0 -- -- 60
2020-01-08 10:00:00 18.1 8 Nordeste 14 Norte 0 -- -- 68
2020-01-08 09:00:00 15.1 5 Norte 12 Nordeste 0 -- -- 79
2020-01-08 08:00:00 13 4 Nordeste 12 Norte 0 -- -- 83
2020-01-08 07:00:00 15.3 5 Norte 16 Norte 0 -- -- 75
2020-01-08 06:00:00 14.2 13 Nordeste 18 Norte 0 -- -- 81
2020-01-08 05:00:00 15.3 11 Nordeste 17 Nordeste 0 -- -- 77
2020-01-08 04:00:00 16.3 11 Nordeste 18 Nordeste 0 -- -- 72
2020-01-08 03:00:00 16.4 12 Norte 23 Norte 0 -- -- 72
2020-01-08 02:00:00 16.2 9 Norte 20 Norte 0 -- -- 73
2020-01-08 01:00:00 16.3 10 Norte 21 Norte 0 -- -- 75
2020-01-08 00:00:00 16.4 10 Norte 21 Norte 0 -- -- 72
2020-01-07 23:00:00 16.5 12 Norte 21 Norte 0 -- -- 72
2020-01-07 22:00:00 16.1 8 Nordeste 15 Nordeste 0 -- -- 75
2020-01-07 21:00:00 16.7 9 Nordeste 18 Norte 0 -- -- 70
2020-01-07 20:00:00 17.2 12 Nordeste 21 Norte 0 -- -- 65
2020-01-07 19:00:00 17.8 12 Norte 18 Nordeste 0 -- -- 61
2020-01-07 18:00:00 19 12 Nordeste 24 Nordeste 0 -- -- 47
2020-01-07 17:00:00 19.7 13 Este 24 Nordeste 0 -- -- 39
2020-01-07 16:00:00 19.4 13 Nordeste 33 Este 0 -- -- 52
2020-01-07 15:00:00 18.9 19 Nordeste 41 Este 0 -- -- 65
2020-01-07 14:00:00 19.3 22 Nordeste 35 Nordeste 0 -- -- 63
2020-01-07 13:00:00 20.2 22 Nordeste 36 Nordeste 0 -- -- 43
2020-01-07 12:00:00 20.3 21 Nordeste 33 Nordeste 0 -- -- 47
2020-01-07 11:00:00 19.2 23 Nordeste 34 Nordeste 0 -- -- 57
2020-01-07 10:00:00 18.5 19 Nordeste 29 Nordeste 0 -- -- 64
2020-01-07 09:00:00 17.7 11 Nordeste 25 Nordeste 0 -- -- 67
2020-01-07 08:00:00 16.9 17 Nordeste 27 Nordeste 0 -- -- 69
2020-01-07 07:00:00 17 19 Nordeste 31 Nordeste 0 -- -- 68
2020-01-07 06:00:00 17.1 19 Nordeste 32 Nordeste 0 -- -- 68
2020-01-07 05:00:00 17.1 22 Nordeste 32 Nordeste 0 -- -- 66
2020-01-07 04:00:00 17.1 18 Nordeste 25 Nordeste 0 -- -- 66
2020-01-07 03:00:00 16.9 18 Nordeste 30 Nordeste 0 -- -- 68
2020-01-07 02:00:00 16.3 11 Norte 24 Norte 0 -- -- 62
2020-01-07 01:00:00 16.7 13 Norte 27 Nordeste 0 -- -- 68
2020-01-07 00:00:00 16.6 14 Norte 26 Norte 0 -- -- 64
2020-01-06 23:00:00 16.7 9 Norte 19 Norte 0 -- -- 63
2020-01-06 22:00:00 16.5 10 Norte 16 Nordeste 0 -- -- 70
2020-01-06 21:00:00 16.4 5 Nordeste 8 Nordeste 0 -- -- 78
2020-01-06 20:00:00 16.5 5 Norte 22 Nordeste 0 -- -- 76
2020-01-06 19:00:00 16.8 6 Nordeste 12 Nordeste 0 -- -- 79
2020-01-06 18:00:00 16.1 8 Noroeste 21 Norte 0.2 -- -- 81
2020-01-06 17:00:00 17.9 11 Noroeste 22 Nordeste 0 -- -- 70
2020-01-06 16:00:00 18.8 15 Nordeste 26 Nordeste 0 -- -- 60
2020-01-06 15:00:00 18.9 17 Este 30 Este 0 -- -- 62
2020-01-06 14:00:00 19.5 14 Este 34 Nordeste 0 -- -- 58
2020-01-06 13:00:00 20.3 26 Nordeste 41 Norte 0 -- -- 44
2020-01-06 12:00:00 20.7 18 Norte 31 Nordeste 0 -- -- 43
2020-01-06 11:00:00 20.2 14 Nordeste 27 Nordeste 0 -- -- 45
2020-01-06 10:00:00 19 9 Nordeste 15 Norte 0 -- -- 58
2020-01-06 09:00:00 16.3 7 Nordeste 14 Nordeste 0 -- -- 71